Time;durP1;ratioP1;P1;durP2;ratioP2;P2;SDS_P1;SDS_P2;PMS_P1;PMS_P2;Temp;Humidity;BMP_temperature;BMP_pressure;BME280_temperature;BME280_humidity;BME280_pressure;Samples;Min_cycle;Max_cycle;Signal;HPM_P1;HPM_P2
2022/09/08 00:00:21;;;;;;;5.93;3.97;;;15.60;99.90;;;;;;5032679;28;20049;-63
2022/09/08 00:02:47;;;;;;;5.20;4.05;;;15.50;99.90;;;;;;5033003;28;20435;-62
2022/09/08 00:05:15;;;;;;;6.35;4.10;;;15.60;99.90;;;;;;5020286;28;20046;-63
2022/09/08 00:07:42;;;;;;;5.10;3.75;;;15.50;99.90;;;;;;4995457;28;20042;-63
2022/09/08 00:10:08;;;;;;;6.30;4.85;;;15.50;99.90;;;;;;4995417;28;20042;-63
2022/09/08 00:12:37;;;;;;;5.57;4.13;;;15.50;99.90;;;;;;4995312;28;20100;-62
2022/09/08 00:15:03;;;;;;;6.00;4.57;;;15.50;99.90;;;;;;5014686;28;20481;-62
2022/09/08 00:17:29;;;;;;;7.13;4.80;;;15.50;99.90;;;;;;5016941;28;20053;-62
2022/09/08 00:19:55;;;;;;;9.05;5.97;;;15.60;99.90;;;;;;5016906;28;20042;-63
2022/09/08 00:22:20;;;;;;;7.97;5.65;;;15.50;99.90;;;;;;5016859;28;20072;-63
2022/09/08 00:24:46;;;;;;;7.43;6.00;;;15.40;99.90;;;;;;5017117;28;20038;-63
2022/09/08 00:27:12;;;;;;;6.55;5.20;;;15.40;99.90;;;;;;5033101;28;20084;-63
2022/09/08 00:29:37;;;;;;;8.57;5.00;;;15.40;99.90;;;;;;5036746;28;20084;-62
2022/09/08 00:32:03;;;;;;;6.63;5.57;;;15.50;99.90;;;;;;5036675;28;20120;-63
2022/09/08 00:34:29;;;;;;;9.77;5.45;;;15.50;99.90;;;;;;5036299;28;20034;-63
2022/09/08 00:36:56;;;;;;;10.02;6.72;;;15.50;99.90;;;;;;5035064;28;20124;-64
2022/09/08 00:39:23;;;;;;;7.43;5.75;;;15.50;99.90;;;;;;5036567;28;20049;-63
2022/09/08 00:41:50;;;;;;;7.95;6.43;;;15.50;99.90;;;;;;5036252;28;20076;-63
2022/09/08 00:44:38;;;;;;;10.32;6.80;;;15.50;99.90;;;;;;5035140;28;20492;-63
2022/09/08 00:47:26;;;;;;;10.05;6.32;;;15.50;99.90;;;;;;5036346;28;20132;-63
2022/09/08 00:50:18;;;;;;;9.98;6.88;;;15.40;99.90;;;;;;5035511;28;20045;-63
2022/09/08 00:53:00;;;;;;;11.38;7.13;;;15.40;99.90;;;;;;5036018;28;20041;-63
2022/09/08 00:55:27;;;;;;;10.50;7.13;;;15.40;99.90;;;;;;5036262;28;20503;-63
2022/09/08 00:57:52;;;;;;;10.13;7.63;;;15.40;99.90;;;;;;5036224;28;20120;-63
2022/09/08 01:00:20;;;;;;;10.30;7.22;;;15.40;99.90;;;;;;5034673;28;20468;-63
2022/09/08 01:02:46;;;;;;;11.15;7.15;;;15.40;99.90;;;;;;5036197;28;20045;-63
2022/09/08 01:05:22;;;;;;;10.80;7.10;;;15.40;99.90;;;;;;5023014;28;20046;-63
2022/09/08 01:13:59;;;;;;;11.55;8.02;;;15.70;99.90;;;;;;5035960;28;20042;-63
2022/09/08 01:16:25;;;;;;;13.93;8.60;;;15.40;99.90;;;;;;5035925;28;20519;-63
2022/09/08 01:18:51;;;;;;;11.25;8.48;;;15.50;99.90;;;;;;5035593;28;20124;-63
2022/09/08 01:21:44;;;;;;;14.18;8.30;;;15.50;99.90;;;;;;5035779;28;20102;-63
2022/09/08 01:24:25;;;;;;;12.57;8.95;;;15.50;99.90;;;;;;5035781;28;20082;-63
2022/09/08 01:27:06;;;;;;;17.00;9.82;;;15.50;99.90;;;;;;5019327;28;20065;-63
2022/09/08 01:29:33;;;;;;;15.57;10.27;;;15.50;99.90;;;;;;5015898;28;20042;-63
2022/09/08 01:31:58;;;;;;;14.15;9.13;;;15.50;99.90;;;;;;5015629;28;20400;-63
2022/09/08 01:34:24;;;;;;;15.80;10.07;;;15.50;99.90;;;;;;4997891;28;20125;-62
2022/09/08 01:36:50;;;;;;;16.25;10.55;;;15.60;99.90;;;;;;4997948;28;20386;-63
2022/09/08 01:39:15;;;;;;;13.73;10.77;;;15.60;99.90;;;;;;5015397;28;20057;-63
2022/09/08 01:41:41;;;;;;;15.85;10.40;;;15.60;99.90;;;;;;5015635;28;20046;-63
2022/09/08 01:44:07;;;;;;;15.20;9.60;;;15.60;99.90;;;;;;5015690;28;20405;-63
2022/09/08 01:46:32;;;;;;;16.25;10.60;;;15.60;99.90;;;;;;5015427;28;20500;-63
2022/09/08 01:48:58;;;;;;;15.75;10.43;;;15.60;99.90;;;;;;4998104;28;20088;-62
2022/09/08 01:51:25;;;;;;;17.90;11.18;;;15.60;99.90;;;;;;5015438;28;20232;-63
2022/09/08 01:53:51;;;;;;;15.88;10.75;;;15.60;99.90;;;;;;5015453;28;20401;-62
2022/09/08 01:56:17;;;;;;;17.45;10.60;;;15.60;99.90;;;;;;4997852;28;20056;-63
2022/09/08 01:58:43;;;;;;;14.57;10.20;;;15.60;99.90;;;;;;5015337;28;20393;-63
2022/09/08 02:01:08;;;;;;;14.02;10.88;;;15.60;99.90;;;;;;5014994;28;20049;-62
2022/09/08 02:03:35;;;;;;;14.77;10.82;;;15.70;99.90;;;;;;5015259;28;20042;-62
2022/09/08 02:06:02;;;;;;;18.15;11.98;;;15.70;99.90;;;;;;5014980;28;20081;-62
2022/09/08 02:08:29;;;;;;;19.25;12.05;;;15.70;99.90;;;;;;5015156;28;20038;-62
2022/09/08 02:10:57;;;;;;;17.42;11.55;;;15.80;99.90;;;;;;5015139;28;20105;-62
2022/09/08 02:13:23;;;;;;;16.20;11.40;;;15.70;99.90;;;;;;5014765;28;20048;-63
2022/09/08 02:15:49;;;;;;;17.02;11.05;;;15.80;99.90;;;;;;5015080;28;20112;-62
2022/09/08 02:18:15;;;;;;;16.85;11.52;;;15.80;99.90;;;;;;5014654;28;20048;-63
2022/09/08 02:20:41;;;;;;;19.52;12.13;;;15.80;99.90;;;;;;5014668;28;20045;-63
2022/09/08 02:23:07;;;;;;;16.30;11.27;;;15.90;99.90;;;;;;5014865;28;20038;-63
2022/09/08 02:25:33;;;;;;;18.52;11.73;;;15.90;99.90;;;;;;5019617;28;20111;-62
2022/09/08 02:27:59;;;;;;;15.93;11.75;;;15.80;99.90;;;;;;5034471;28;20049;-62
2022/09/08 02:30:25;;;;;;;17.80;12.35;;;15.90;99.90;;;;;;5034501;28;20099;-62
2022/09/08 02:32:51;;;;;;;16.65;11.75;;;15.90;99.90;;;;;;5034236;28;20037;-63
2022/09/08 02:35:17;;;;;;;16.75;12.10;;;15.90;99.90;;;;;;5034116;28;20440;-63
2022/09/08 02:37:43;;;;;;;16.00;12.02;;;15.90;99.90;;;;;;5016025;28;20444;-62
2022/09/08 02:40:09;;;;;;;17.92;12.68;;;15.90;99.90;;;;;;5016277;28;20080;-62
2022/09/08 02:42:36;;;;;;;20.77;12.05;;;15.90;99.90;;;;;;5016195;28;20076;-62
2022/09/08 02:45:02;;;;;;;18.63;12.13;;;15.90;99.90;;;;;;5034278;28;20057;-62
2022/09/08 02:47:28;;;;;;;20.15;13.38;;;15.90;99.90;;;;;;5016106;28;20139;-62
2022/09/08 02:49:54;;;;;;;21.88;13.05;;;15.90;99.90;;;;;;5033875;28;20441;-62
2022/09/08 02:52:19;;;;;;;17.23;12.13;;;15.90;99.90;;;;;;5033783;28;20034;-62
2022/09/08 02:54:45;;;;;;;22.27;12.55;;;15.90;99.90;;;;;;5034032;28;20039;-62
2022/09/08 02:57:11;;;;;;;18.60;12.30;;;16.00;99.90;;;;;;5033739;28;20136;-62
2022/09/08 02:59:37;;;;;;;23.70;13.60;;;16.00;99.90;;;;;;5033574;28;20041;-62
2022/09/08 03:02:03;;;;;;;23.05;13.52;;;16.10;99.90;;;;;;5033948;28;20090;-62
2022/09/08 03:04:28;;;;;;;20.20;13.63;;;16.10;99.90;;;;;;5033783;28;20045;-62
2022/09/08 03:06:54;;;;;;;19.65;13.50;;;16.10;99.90;;;;;;5033727;28;20053;-62
2022/09/08 03:09:20;;;;;;;19.90;13.65;;;16.10;99.90;;;;;;5033740;28;20503;-62
2022/09/08 03:11:46;;;;;;;22.42;14.68;;;16.10;99.90;;;;;;5033723;28;20041;-62
2022/09/08 03:14:12;;;;;;;26.25;14.70;;;16.10;99.90;;;;;;5033573;28;20045;-62
2022/09/08 03:16:39;;;;;;;20.52;14.45;;;16.10;99.90;;;;;;5033657;28;20049;-62
2022/09/08 03:19:06;;;;;;;22.15;14.13;;;16.20;99.90;;;;;;5033663;28;20048;-62
2022/09/08 03:21:31;;;;;;;20.10;13.75;;;16.20;99.90;;;;;;5033571;28;20179;-62
2022/09/08 03:23:57;;;;;;;20.15;14.45;;;16.20;99.90;;;;;;5033561;28;20065;-62
2022/09/08 03:26:24;;;;;;;18.83;13.02;;;16.20;99.90;;;;;;5033056;28;20382;-62
2022/09/08 03:28:50;;;;;;;21.25;13.85;;;16.10;99.90;;;;;;5033416;28;20362;-62
2022/09/08 03:31:18;;;;;;;23.27;13.80;;;16.20;99.90;;;;;;5033146;28;20044;-62
2022/09/08 03:33:44;;;;;;;22.48;13.55;;;16.20;99.90;;;;;;5015109;28;20034;-62
2022/09/08 03:36:11;;;;;;;20.98;13.70;;;16.20;99.90;;;;;;5033044;28;20091;-62
2022/09/08 03:38:37;;;;;;;18.38;13.23;;;16.20;99.90;;;;;;5032993;28;20072;-62
2022/09/08 03:41:08;;;;;;;20.13;13.10;;;16.20;99.90;;;;;;5032987;28;20049;-62
2022/09/08 03:43:34;;;;;;;20.02;13.75;;;16.10;99.90;;;;;;5033226;28;20036;-62
2022/09/08 03:46:05;;;;;;;19.92;13.25;;;16.10;99.90;;;;;;5015127;28;20128;-62
2022/09/08 03:48:30;;;;;;;;;;;16.10;99.90;;;;;;5033642;28;20063;-62
2022/09/08 03:51:06;;;;;;;19.83;12.70;;;16.10;99.90;;;;;;5033165;28;19917;-62
2022/09/08 03:53:32;;;;;;;22.98;13.00;;;16.10;99.90;;;;;;5032873;28;20068;-62
2022/09/08 03:55:57;;;;;;;20.95;13.68;;;16.10;99.90;;;;;;5033135;28;20481;-62
2022/09/08 03:58:23;;;;;;;25.92;13.75;;;16.10;99.90;;;;;;5033049;28;20439;-62
2022/09/08 04:00:49;;;;;;;26.98;15.23;;;16.10;99.90;;;;;;5033150;28;20038;-62
2022/09/08 04:03:15;;;;;;;22.20;14.32;;;16.10;99.90;;;;;;5032833;28;20041;-62
2022/09/08 04:05:41;;;;;;;24.38;14.23;;;16.10;99.90;;;;;;5032993;28;20052;-62
2022/09/08 04:08:07;;;;;;;24.38;14.75;;;16.00;99.90;;;;;;5015028;28;20037;-62
2022/09/08 04:10:33;;;;;;;23.00;14.32;;;16.00;99.90;;;;;;5032973;28;20481;-62
2022/09/08 04:12:58;;;;;;;21.85;13.43;;;16.00;99.90;;;;;;5032597;28;20120;-62
2022/09/08 04:15:24;;;;;;;24.60;14.38;;;16.00;99.90;;;;;;5032598;28;20040;-62
2022/09/08 04:17:50;;;;;;;27.20;15.07;;;16.10;99.90;;;;;;5032710;28;20140;-62
2022/09/08 04:20:17;;;;;;;26.63;14.35;;;16.00;99.90;;;;;;5014887;28;20076;-62
2022/09/08 04:22:43;;;;;;;24.45;16.38;;;16.00;99.90;;;;;;5015069;28;20064;-62
2022/09/08 04:25:09;;;;;;;21.70;13.93;;;16.00;99.90;;;;;;5032441;28;20038;-62
2022/09/08 04:27:34;;;;;;;26.50;14.98;;;16.00;99.90;;;;;;5032747;28;20139;-62
2022/09/08 04:30:00;;;;;;;25.77;14.98;;;16.10;99.90;;;;;;5014722;28;20045;-62
2022/09/08 04:32:26;;;;;;;28.40;16.02;;;16.00;99.90;;;;;;5014759;28;20045;-62
2022/09/08 04:34:51;;;;;;;29.05;16.65;;;16.00;99.90;;;;;;5032539;28;20037;-62
2022/09/08 04:37:18;;;;;;;24.27;15.25;;;16.00;99.90;;;;;;5032427;28;20053;-62
2022/09/08 04:39:44;;;;;;;23.05;15.57;;;16.00;99.90;;;;;;5032396;28;20157;-62
2022/09/08 04:42:10;;;;;;;28.45;16.30;;;16.00;99.90;;;;;;5032310;28;20077;-62
2022/09/08 04:44:36;;;;;;;24.55;15.20;;;16.00;99.90;;;;;;5032732;28;20037;-62
2022/09/08 04:47:02;;;;;;;25.88;15.77;;;16.00;99.90;;;;;;5032590;28;20128;-62
2022/09/08 04:49:27;;;;;;;26.30;16.13;;;16.00;99.90;;;;;;5032626;28;20099;-62
2022/09/08 04:51:53;;;;;;;30.83;17.00;;;16.00;99.90;;;;;;5014932;28;20045;-62
2022/09/08 04:54:19;;;;;;;27.17;16.67;;;16.00;99.90;;;;;;5032547;28;20042;-62
2022/09/08 04:56:44;;;;;;;28.20;16.27;;;16.00;99.90;;;;;;5032497;28;20037;-62
2022/09/08 04:59:10;;;;;;;29.52;16.13;;;16.00;99.90;;;;;;5032530;28;20099;-62
2022/09/08 05:01:37;;;;;;;26.08;16.60;;;16.00;99.90;;;;;;5016833;28;20164;-62
2022/09/08 05:04:03;;;;;;;27.88;16.73;;;15.90;99.90;;;;;;5036081;28;20042;-62
2022/09/08 05:06:32;;;;;;;31.15;17.25;;;15.90;99.90;;;;;;5018079;28;20049;-62
2022/09/08 05:08:59;;;;;;;30.33;18.17;;;15.90;99.90;;;;;;5035781;28;20485;-62
2022/09/08 05:11:27;;;;;;;28.42;17.13;;;15.90;99.90;;;;;;5017943;28;20103;-62
2022/09/08 05:13:53;;;;;;;28.38;16.85;;;15.90;99.90;;;;;;5035678;28;20045;-62
2022/09/08 05:16:21;;;;;;;27.20;17.02;;;15.90;99.90;;;;;;5035925;28;20069;-62
2022/09/08 05:18:52;;;;;;;26.75;16.77;;;15.90;99.90;;;;;;5035513;28;20084;-63
2022/09/08 05:21:18;;;;;;;26.75;15.50;;;15.90;99.90;;;;;;5018113;28;20041;-62
2022/09/08 05:23:45;;;;;;;24.92;15.95;;;16.00;99.90;;;;;;5035785;28;20137;-63
2022/09/08 05:26:13;;;;;;;28.52;16.75;;;16.00;99.90;;;;;;5035281;28;20071;-62
2022/09/08 05:28:40;;;;;;;28.08;16.80;;;16.00;99.90;;;;;;5017970;28;20401;-62
2022/09/08 05:31:07;;;;;;;26.52;17.63;;;16.00;99.90;;;;;;5035349;28;20041;-62
2022/09/08 05:33:33;;;;;;;27.13;16.60;;;16.00;99.90;;;;;;5035629;28;20041;-62
2022/09/08 05:36:00;;;;;;;26.58;16.52;;;16.00;99.90;;;;;;5035356;28;20029;-61
2022/09/08 05:38:26;;;;;;;30.33;15.52;;;16.00;99.90;;;;;;5035543;28;20047;-62
2022/09/08 05:40:52;;;;;;;26.02;15.80;;;16.10;99.90;;;;;;5035467;28;20047;-62
2022/09/08 05:43:19;;;;;;;23.42;15.93;;;16.10;99.90;;;;;;5035419;28;20048;-63
2022/09/08 05:45:50;;;;;;;25.60;15.10;;;16.10;99.90;;;;;;5035082;28;20048;-66
2022/09/08 05:48:16;;;;;;;23.00;14.70;;;16.10;99.90;;;;;;5035265;28;20068;-62
2022/09/08 05:50:43;;;;;;;25.77;16.00;;;16.10;99.90;;;;;;5017340;28;20143;-62
2022/09/08 05:53:09;;;;;;;29.75;15.63;;;16.20;99.90;;;;;;5034949;28;20052;-63
2022/09/08 05:55:35;;;;;;;27.05;16.27;;;16.20;99.90;;;;;;5034888;28;20437;-61
2022/09/08 05:58:01;;;;;;;27.48;15.98;;;16.30;99.90;;;;;;5035145;28;20049;-62
2022/09/08 06:00:26;;;;;;;26.50;15.90;;;16.30;99.90;;;;;;5017425;28;20073;-64
2022/09/08 06:02:53;;;;;;;27.38;15.52;;;16.30;99.90;;;;;;5034753;28;20103;-63
2022/09/08 06:05:23;;;;;;;24.75;15.45;;;16.30;99.90;;;;;;5017075;28;20041;-65
2022/09/08 06:07:49;;;;;;;24.27;16.33;;;16.30;99.90;;;;;;5034665;28;20114;-62
2022/09/08 06:10:17;;;;;;;25.38;15.52;;;16.30;99.90;;;;;;5034447;28;20064;-61
2022/09/08 06:12:44;;;;;;;27.15;16.83;;;16.30;99.90;;;;;;5033834;28;20111;-62
2022/09/08 06:15:10;;;;;;;22.98;15.05;;;16.30;99.90;;;;;;5034516;28;20041;-62
2022/09/08 06:17:36;;;;;;;24.20;16.83;;;16.30;99.90;;;;;;5034721;28;20038;-62
2022/09/08 06:20:03;;;;;;;25.27;15.55;;;16.30;99.90;;;;;;5034596;28;20044;-63
2022/09/08 06:22:32;;;;;;;28.30;16.02;;;16.30;99.90;;;;;;5034497;28;20033;-64
2022/09/08 06:24:58;;;;;;;26.98;15.45;;;16.30;99.90;;;;;;5034044;28;20086;-64
2022/09/08 06:27:45;;;;;;;22.08;14.93;;;16.30;99.90;;;;;;5034281;28;20049;-64
2022/09/08 06:30:18;;;;;;;24.05;14.82;;;16.30;99.90;;;;;;5034466;28;20053;-63
2022/09/08 06:33:14;;;;;;;24.33;15.60;;;16.30;99.90;;;;;;5034164;28;20045;-64
2022/09/08 06:36:14;;;;;;;27.13;15.57;;;16.40;99.90;;;;;;5012679;28;20057;-64
2022/09/08 06:38:49;;;;;;;24.60;16.57;;;16.40;99.90;;;;;;5033165;28;20050;-63
2022/09/08 06:41:27;;;;;;;35.30;17.15;;;16.40;99.90;;;;;;5034126;28;20519;-63
2022/09/08 06:44:04;;;;;;;32.97;17.30;;;16.50;99.90;;;;;;5033815;28;20116;-62
2022/09/08 06:46:32;;;;;;;27.77;16.20;;;16.50;99.90;;;;;;5033947;28;20041;-64
2022/09/08 06:48:59;;;;;;;27.83;16.75;;;16.50;99.90;;;;;;5033766;28;20497;-63
2022/09/08 06:51:52;;;;;;;26.15;15.90;;;16.50;99.90;;;;;;5033934;28;20473;-64
2022/09/08 06:54:29;;;;;;;28.85;17.35;;;16.50;99.90;;;;;;5033928;28;20046;-64
2022/09/08 06:57:01;;;;;;;24.73;15.40;;;16.60;99.90;;;;;;5033844;28;20124;-64
2022/09/08 06:59:49;;;;;;;28.80;16.75;;;16.60;99.90;;;;;;5033483;28;20045;-64
2022/09/08 07:02:38;;;;;;;25.90;16.15;;;16.60;99.90;;;;;;5016156;28;20037;-64
2022/09/08 07:05:11;;;;;;;26.08;16.63;;;16.60;99.90;;;;;;5033270;28;20037;-64
2022/09/08 07:07:57;;;;;;;24.98;15.82;;;16.60;99.90;;;;;;5015704;28;20053;-64
2022/09/08 07:10:47;;;;;;;26.13;16.27;;;16.60;99.90;;;;;;5015741;28;20069;-64
2022/09/08 07:13:16;;;;;;;30.30;17.98;;;16.60;99.90;;;;;;5015584;28;20045;-64
2022/09/08 07:16:16;;;;;;;25.58;15.55;;;16.60;99.90;;;;;;5033507;28;20048;-64
2022/09/08 07:18:52;;;;;;;29.60;16.65;;;16.60;99.90;;;;;;5033471;28;20045;-64
2022/09/08 07:21:46;;;;;;;25.83;16.60;;;16.60;99.90;;;;;;5033027;28;20033;-64
2022/09/08 07:24:16;;;;;;;25.63;16.05;;;16.60;99.90;;;;;;5033127;28;20484;-64
2022/09/08 07:26:53;;;;;;;27.55;17.00;;;16.60;99.90;;;;;;5032865;28;20062;-64
2022/09/08 07:29:35;;;;;;;25.75;15.77;;;16.60;99.90;;;;;;5032954;28;20038;-64
2022/09/08 07:32:02;;;;;;;23.00;14.27;;;16.60;99.90;;;;;;5033265;28;20508;-63
2022/09/08 07:34:33;;;;;;;22.48;14.35;;;16.60;99.90;;;;;;5032964;28;20045;-63
2022/09/08 07:37:35;;;;;;;20.98;13.30;;;16.60;99.90;;;;;;5032884;28;20045;-64
2022/09/08 07:40:25;;;;;;;25.65;12.95;;;16.60;99.90;;;;;;5012076;28;20512;-64
2022/09/08 07:42:55;;;;;;;22.23;13.23;;;16.50;99.90;;;;;;5002633;28;20132;-63
2022/09/08 07:45:31;;;;;;;20.80;12.40;;;16.50;99.90;;;;;;5033081;28;20057;-63
2022/09/08 07:48:00;;;;;;;17.63;12.45;;;16.50;99.90;;;;;;5033041;28;20292;-63
2022/09/08 07:50:54;;;;;;;17.70;12.40;;;16.50;99.90;;;;;;5033064;28;20388;-63
2022/09/08 07:53:35;;;;;;;18.70;12.02;;;16.50;99.90;;;;;;5015000;28;20045;-63
2022/09/08 07:56:15;;;;;;;18.13;11.80;;;16.50;99.90;;;;;;5032975;28;20103;-64
2022/09/08 07:58:52;;;;;;;18.55;10.73;;;16.50;99.90;;;;;;5032640;28;20125;-64
2022/09/08 08:01:36;;;;;;;18.83;11.60;;;16.50;99.90;;;;;;5032854;28;20034;-64
2022/09/08 08:04:11;;;;;;;16.58;9.73;;;16.60;99.90;;;;;;5032621;28;20037;-63
2022/09/08 08:06:49;;;;;;;16.98;10.85;;;16.60;99.90;;;;;;5032526;28;20045;-63
2022/09/08 08:09:46;;;;;;;19.55;11.70;;;16.60;99.90;;;;;;5032600;28;20034;-63
2022/09/08 08:12:28;;;;;;;18.90;11.80;;;16.60;99.90;;;;;;5032775;28;20397;-63
2022/09/08 08:15:20;;;;;;;24.33;13.05;;;16.60;99.90;;;;;;5032899;28;20046;-63
2022/09/08 08:17:49;;;;;;;17.13;11.80;;;16.70;99.90;;;;;;4995091;28;20053;-63
2022/09/08 08:20:33;;;;;;;22.83;13.35;;;16.70;99.90;;;;;;5032579;28;20041;-63
2022/09/08 08:23:21;;;;;;;23.80;14.18;;;16.70;99.90;;;;;;5032538;28;20116;-63
2022/09/08 08:26:05;;;;;;;21.35;13.55;;;16.80;99.90;;;;;;5032439;28;20140;-64
2022/09/08 08:28:42;;;;;;;24.88;13.65;;;16.80;99.90;;;;;;5032505;28;20093;-63
2022/09/08 08:31:38;;;;;;;19.60;12.85;;;16.80;99.90;;;;;;5032465;28;20120;-63
2022/09/08 08:34:10;;;;;;;24.58;13.85;;;16.80;99.90;;;;;;5032430;28;20044;-63
2022/09/08 08:36:42;;;;;;;24.55;13.38;;;16.80;99.90;;;;;;5034814;28;20050;-63
2022/09/08 08:39:22;;;;;;;17.88;12.15;;;16.80;99.90;;;;;;5036639;28;20112;-63
2022/09/08 08:42:00;;;;;;;19.20;12.87;;;16.80;99.90;;;;;;5036242;28;20080;-63
2022/09/08 08:44:40;;;;;;;21.40;12.07;;;16.80;99.90;;;;;;5036546;28;20636;-63
2022/09/08 08:47:43;;;;;;;22.48;12.38;;;16.80;99.90;;;;;;5036419;28;20473;-63
2022/09/08 08:50:30;;;;;;;15.00;10.68;;;16.90;99.90;;;;;;5018596;28;20085;-62
2022/09/08 08:53:28;;;;;;;14.77;10.63;;;16.90;99.90;;;;;;5036308;28;20473;-62
2022/09/08 08:56:19;;;;;;;16.20;10.68;;;16.90;99.90;;;;;;5036069;28;20400;-62
2022/09/08 08:58:45;;;;;;;;;;;17.00;99.90;;;;;;5036645;28;20052;-63
2022/09/08 09:01:16;;;;;;;21.75;12.25;;;17.00;99.90;;;;;;5036202;28;20380;-62
2022/09/08 09:04:07;;;;;;;19.63;11.57;;;17.00;99.90;;;;;;5035935;28;20041;-62
2022/09/08 09:07:04;;;;;;;15.55;10.30;;;17.00;99.90;;;;;;5035754;28;20447;-62
2022/09/08 09:09:57;;;;;;;16.00;10.38;;;17.10;99.90;;;;;;5036001;28;20112;-62
2022/09/08 09:12:41;;;;;;;17.38;10.63;;;17.10;99.90;;;;;;5018207;28;20102;-62
2022/09/08 09:15:24;;;;;;;16.40;9.88;;;17.10;99.90;;;;;;5035701;28;20097;-62
2022/09/08 09:18:19;;;;;;;16.25;10.10;;;17.10;99.90;;;;;;5035627;28;20057;-62
2022/09/08 09:21:06;;;;;;;11.90;8.90;;;17.10;99.90;;;;;;4999911;28;20092;-62
2022/09/08 09:23:59;;;;;;;14.65;8.23;;;17.10;99.90;;;;;;5035806;28;20061;-62
2022/09/08 09:26:30;;;;;;;13.57;7.63;;;17.10;99.90;;;;;;5035074;28;20187;-62
2022/09/08 09:29:21;;;;;;;11.55;8.15;;;17.10;99.90;;;;;;5035660;28;20055;-62
2022/09/08 09:32:25;;;;;;;11.18;7.90;;;17.10;99.90;;;;;;5035409;28;20034;-62
2022/09/08 09:35:14;;;;;;;12.13;7.57;;;17.20;99.90;;;;;;5035570;28;20069;-62
2022/09/08 09:38:13;;;;;;;12.07;7.00;;;17.30;99.90;;;;;;5035616;28;20396;-62
2022/09/08 09:41:03;;;;;;;11.65;5.85;;;17.30;99.90;;;;;;5035216;28;20128;-62
2022/09/08 09:44:06;;;;;;;9.55;6.10;;;17.30;99.90;;;;;;5035415;28;20120;-62
2022/09/08 09:46:44;;;;;;;10.35;6.47;;;17.30;99.90;;;;;;5035223;28;20098;-62
2022/09/08 09:49:37;;;;;;;10.88;6.03;;;17.30;99.90;;;;;;5035058;28;20042;-62
2022/09/08 09:52:37;;;;;;;8.63;5.72;;;17.30;99.90;;;;;;5034821;28;20073;-62
2022/09/08 09:55:40;;;;;;;7.10;4.83;;;17.40;99.90;;;;;;5035309;28;20041;-62
2022/09/08 09:58:42;;;;;;;7.53;4.40;;;17.40;99.90;;;;;;5035141;28;20414;-62
2022/09/08 10:01:29;;;;;;;5.60;4.22;;;17.40;99.90;;;;;;5035012;28;20041;-62
2022/09/08 10:04:19;;;;;;;6.10;4.03;;;17.30;99.90;;;;;;5032448;28;20041;-62
2022/09/08 10:07:13;;;;;;;6.30;3.90;;;17.40;99.90;;;;;;5015166;28;20144;-62
2022/09/08 10:10:20;;;;;;;6.68;3.33;;;17.40;99.90;;;;;;5015017;28;20061;-62
2022/09/08 10:12:58;;;;;;;5.18;2.88;;;17.40;99.90;;;;;;4916209;29;20507;-62
2022/09/08 10:15:40;;;;;;;4.05;2.92;;;17.30;99.90;;;;;;4900402;29;20044;-62
2022/09/08 10:18:26;;;;;;;4.85;2.95;;;17.30;99.90;;;;;;4983204;28;20194;-62
2022/09/08 10:21:20;;;;;;;3.35;2.47;;;17.30;99.90;;;;;;4997518;28;20045;-61
2022/09/08 10:24:16;;;;;;;4.18;2.45;;;17.30;99.90;;;;;;5014991;28;20034;-62
2022/09/08 10:27:12;;;;;;;3.60;2.28;;;17.20;99.90;;;;;;5014233;28;20054;-62
2022/09/08 10:30:07;;;;;;;6.45;2.50;;;17.30;99.90;;;;;;5014792;28;20042;-62
2022/09/08 10:33:03;;;;;;;5.72;2.60;;;17.20;99.90;;;;;;4996903;28;20064;-62
2022/09/08 10:35:38;;;;;;;5.40;2.33;;;17.20;99.90;;;;;;5014542;28;20188;-62
2022/09/08 10:38:31;;;;;;;3.28;2.30;;;17.20;99.90;;;;;;5014552;28;20477;-61
2022/09/08 10:40:57;;;;;;;7.00;2.38;;;17.30;99.90;;;;;;5014386;28;20397;-62
2022/09/08 10:43:38;;;;;;;4.03;2.80;;;17.20;99.90;;;;;;5014293;28;20045;-62
2022/09/08 10:46:18;;;;;;;;;;;17.20;99.90;;;;;;4996836;28;20052;-62
2022/09/08 10:48:53;;;;;;;2.42;1.63;;;17.20;99.90;;;;;;5014063;28;20377;-61
2022/09/08 10:51:36;;;;;;;3.15;2.15;;;17.20;99.90;;;;;;5014241;28;20046;-62
2022/09/08 10:54:37;;;;;;;3.63;1.80;;;17.10;99.90;;;;;;5014167;28;20042;-62
2022/09/08 10:57:41;;;;;;;;;;;17.10;99.90;;;;;;5014613;28;20050;-62
2022/09/08 11:00:12;;;;;;;2.40;1.70;;;17.10;99.90;;;;;;4914899;29;19919;-62
2022/09/08 11:03:35;;;;;;;2.35;1.02;;;17.10;99.90;;;;;;4915439;29;20044;-62
2022/09/08 11:06:15;;;;;;;1.85;1.20;;;17.00;99.90;;;;;;4908935;29;20182;-62
2022/09/08 11:09:29;;;;;;;2.53;1.25;;;17.10;99.90;;;;;;4915381;29;20242;-62
2022/09/08 11:12:32;;;;;;;1.60;1.40;;;17.10;99.90;;;;;;4890277;29;20052;-62
2022/09/08 11:15:34;;;;;;;3.75;1.10;;;17.10;99.90;;;;;;4896365;29;20036;-62
2022/09/08 11:18:41;;;;;;;2.42;0.98;;;17.00;99.90;;;;;;4996209;28;20054;-62
2022/09/08 11:21:09;;;;;;;1.17;0.82;;;17.00;99.90;;;;;;4980539;28;20057;-62
2022/09/08 11:23:56;;;;;;;2.25;0.90;;;17.00;99.90;;;;;;5013919;28;20388;-62
2022/09/08 11:26:31;;;;;;;1.35;1.00;;;17.00;99.90;;;;;;4995626;28;20060;-62
2022/09/08 11:29:11;;;;;;;0.95;0.60;;;16.90;99.90;;;;;;5013833;28;20077;-62
2022/09/08 11:31:57;;;;;;;1.05;0.60;;;17.00;99.90;;;;;;4995851;28;20135;-62
2022/09/08 11:34:35;;;;;;;0.80;0.60;;;16.90;99.90;;;;;;4996158;28;20034;-62
2022/09/08 11:37:21;;;;;;;1.25;0.60;;;16.90;99.90;;;;;;5013416;28;20052;-62
2022/09/08 11:40:32;;;;;;;0.85;0.70;;;16.90;99.90;;;;;;4995967;28;20100;-62
2022/09/08 11:43:09;;;;;;;0.75;0.60;;;16.90;99.90;;;;;;4914820;29;20172;-62
2022/09/08 11:46:04;;;;;;;2.67;0.80;;;16.90;99.90;;;;;;5007382;28;20044;-62
2022/09/08 11:48:38;;;;;;;0.65;0.60;;;16.90;99.90;;;;;;5013380;28;20481;-62
2022/09/08 11:51:19;;;;;;;1.35;0.85;;;16.90;99.90;;;;;;5013156;28;20060;-62
2022/09/08 11:54:22;;;;;;;1.45;0.68;;;16.90;99.90;;;;;;5013448;28;20121;-62
2022/09/08 11:57:15;;;;;;;0.85;0.60;;;16.80;99.90;;;;;;5013411;28;20049;-62
2022/09/08 12:00:07;;;;;;;2.08;0.90;;;16.90;99.90;;;;;;5013068;28;20124;-62
2022/09/08 12:02:36;;;;;;;0.95;0.70;;;16.90;99.90;;;;;;4995544;28;20128;-62
2022/09/08 12:05:11;;;;;;;1.48;0.90;;;17.00;99.90;;;;;;4995540;28;20124;-62
2022/09/08 12:07:49;;;;;;;0.98;0.75;;;17.00;99.90;;;;;;5012965;28;20116;-62
2022/09/08 12:10:37;;;;;;;0.82;0.50;;;16.90;99.90;;;;;;5013134;28;20085;-62
2022/09/08 12:13:17;;;;;;;1.25;0.73;;;16.90;99.90;;;;;;4999535;28;20046;-62
2022/09/08 12:16:05;;;;;;;1.50;0.70;;;16.90;99.90;;;;;;5017397;28;20393;-62
2022/09/08 12:18:55;;;;;;;3.85;0.80;;;16.90;99.90;;;;;;5017282;28;20038;-62
2022/09/08 12:21:21;;;;;;;0.80;0.68;;;17.00;99.90;;;;;;5017252;28;20124;-62
2022/09/08 12:24:02;;;;;;;1.23;0.88;;;17.00;99.90;;;;;;5017102;28;20084;-62
2022/09/08 12:26:52;;;;;;;1.17;0.80;;;17.00;99.90;;;;;;5029184;28;20059;-62
2022/09/08 12:29:40;;;;;;;0.73;0.60;;;17.10;99.90;;;;;;5036735;28;20041;-62
2022/09/08 12:32:09;;;;;;;1.48;0.85;;;17.10;99.90;;;;;;5036772;28;20052;-62
2022/09/08 12:35:12;;;;;;;1.48;1.05;;;17.00;99.90;;;;;;5036584;28;20033;-62
2022/09/08 12:37:38;;;;;;;1.52;0.70;;;17.10;99.90;;;;;;5036407;28;20124;-62
2022/09/08 12:40:13;;;;;;;1.02;0.68;;;17.00;99.90;;;;;;5036582;28;20116;-62
2022/09/08 12:42:44;;;;;;;1.45;0.75;;;17.00;99.90;;;;;;5036575;28;20037;-62
2022/09/08 12:45:17;;;;;;;3.22;0.90;;;17.10;99.90;;;;;;5036165;28;20041;-62
2022/09/08 12:48:09;;;;;;;1.30;0.70;;;17.00;99.90;;;;;;5036064;28;20081;-62
2022/09/08 12:51:09;;;;;;;1.50;0.98;;;17.10;99.90;;;;;;5036475;28;20120;-62
2022/09/08 12:54:12;;;;;;;1.17;0.75;;;17.00;99.90;;;;;;5012995;28;20064;-62
2022/09/08 12:56:44;;;;;;;4.45;1.08;;;17.00;99.90;;;;;;5036337;28;20040;-61
2022/09/08 12:59:48;;;;;;;1.40;0.77;;;17.00;99.90;;;;;;5036305;28;20528;-62
2022/09/08 13:02:26;;;;;;;1.40;1.00;;;17.10;99.90;;;;;;5036230;28;20046;-62
2022/09/08 13:05:17;;;;;;;2.67;1.10;;;17.10;99.90;;;;;;5036020;28;20127;-62
2022/09/08 13:08:08;;;;;;;1.63;1.08;;;17.20;99.90;;;;;;5005282;28;20440;-62
2022/09/08 13:10:40;;;;;;;2.05;1.15;;;17.30;99.90;;;;;;5035757;28;20049;-62
2022/09/08 13:13:32;;;;;;;2.20;1.25;;;17.30;99.90;;;;;;5036058;28;20041;-62
2022/09/08 13:16:03;;;;;;;2.35;1.70;;;17.40;99.90;;;;;;5036044;28;20068;-62
2022/09/08 13:18:41;;;;;;;3.03;1.75;;;17.50;99.90;;;;;;5035663;28;20124;-62
2022/09/08 13:21:20;;;;;;;2.67;1.48;;;17.50;99.90;;;;;;5035503;28;20392;-62
2022/09/08 13:24:07;;;;;;;2.42;1.60;;;17.50;99.90;;;;;;5035855;28;20072;-62
2022/09/08 13:26:38;;;;;;;2.83;1.80;;;17.50;99.90;;;;;;5035369;28;20096;-62